Für Piloten

Informationen für Piloten zum Flugplatz Borken-Hoxfeld
Hier findest Du alle relevanten Informationen, die Du als Pilot benötigst, um Borken-Hoxfeld anzufliegen.

Flugplatz: Borken-Hoxfeld ICAO-Code: EDLY
Borken-Hoxfeld Info: 122,930 Mhz
GAFOR Gebiet: 32
Platzrunde: Motorflug; -> Südplatzrunde; Segelflug; -> Nordplatzrunde;
Landegebühr: z.Zt. 5,00 Euro
Platzhöhe: 48m üMSL
Pisten: 12/30 – 740 m x 30 m, GRAS
Betriebszeiten: PPR (in den Sommermonaten Mittagspause beachten)

 

Wetterforecast:

Available data for EDDL from the past 2 hours
DUESSELDORF
Metar
EDDL 180650Z 03005KT CAVOK 11/05 Q1025 BECMG 08011KT

06:50 UTC

Wind: 30° 5kt

Visibility:

Sky:

Temp: 11 deg C / 51.8 deg F

Dewpoint: 5 deg C / 41 deg F

Pressure: 1025 hPa

TAF
TAF EDDL 180500Z 1806/1912 05006KT CAVOK BECMG 1808/1811 07011KT BECMG 1818/1821 07006KT

Alle obigen Informationen ersetzen nicht die vorgeschriebene, persönliche Flugvorbereitung.